X  Zatvori METAR Podaci o vazduhoplovstvu     LYNI Nis Airport
Temperatura
17°C Temperatura
17°C Tačka Rose
100% Vlaga



Vetar
1 M/S
2 MPH
3 KM/H
2 KTS



Tiho
S
Trenutna situacija

Vedro Vedro
Vazdušni pritisak 1017.92 (hPa) - 30.06 (inHg)
Vidljivost 6.2 (Milja) - 10 (km)
Aerodrom
Aerodromski kod. LYNI

Lokacija: Nis Airport
Udaljenost: 63 (km)

Metar:
LYNI 110130Z VRB02KT CAVOK 17/17 Q1018 NOSIG

Vreme: 11-08-2022 03:30 CEST